Time;durP1;ratioP1;P1;durP2;ratioP2;P2;SDS_P1;SDS_P2;PMS_P1;PMS_P2;Temp;Humidity;BMP_temperature;BMP_pressure;BME280_temperature;BME280_humidity;BME280_pressure;Samples;Min_cycle;Max_cycle;Signal;HPM_P1;HPM_P2
2021/07/10 00:00:39;;;;;;;0.30;0.30;;;;;;;19.58;57.56;97475.13;5114802;28;20523;-59
2021/07/10 00:03:05;;;;;;;0.60;0.60;;;;;;;19.60;57.54;97475.63;5114838;28;20031;-60
2021/07/10 00:05:32;;;;;;;0.50;0.50;;;;;;;19.61;57.71;97468.91;5114719;28;20445;-60
2021/07/10 00:07:57;;;;;;;0.90;0.52;;;;;;;19.64;57.45;97469.38;5114116;28;20063;-60
2021/07/10 00:10:23;;;;;;;0.68;0.25;;;;;;;19.67;57.47;97460.38;5114388;28;20027;-60
2021/07/10 00:12:49;;;;;;;3.67;0.55;;;;;;;19.72;57.46;97465.81;5114370;28;20493;-60
2021/07/10 00:15:18;;;;;;;1.38;0.73;;;;;;;19.76;57.29;97455.66;5113940;28;20118;-61
2021/07/10 00:17:44;;;;;;;1.48;0.43;;;;;;;19.79;57.36;97455.03;5114236;28;20130;-61
2021/07/10 00:20:11;;;;;;;0.60;0.60;;;;;;;19.85;57.09;97458.47;5114022;28;20493;-60
2021/07/10 00:22:38;;;;;;;0.10;0.10;;;;;;;19.85;57.14;97450.09;5113925;28;20027;-60
2021/07/10 00:25:09;;;;;;;0.40;0.40;;;;;;;19.86;56.93;97455.34;5114153;28;20400;-61
2021/07/10 00:27:35;;;;;;;0.43;0.43;;;;;;;19.85;57.15;97452.88;5114376;28;20035;-60
2021/07/10 00:30:02;;;;;;;0.30;0.30;;;;;;;19.87;57.27;97450.59;5113738;28;20027;-60
2021/07/10 00:32:28;;;;;;;1.35;0.55;;;;;;;19.91;57.07;97452.38;5113413;28;20038;-61
2021/07/10 00:34:54;;;;;;;0.70;0.70;;;;;;;19.92;57.12;97448.44;5113879;28;20110;-61
2021/07/10 00:37:20;;;;;;;0.10;0.10;;;;;;;19.98;57.00;97453.84;5113773;28;20111;-61
2021/07/10 00:39:45;;;;;;;1.38;0.40;;;;;;;20.01;56.91;97450.38;5113652;28;20053;-62
2021/07/10 00:42:11;;;;;;;0.40;0.40;;;;;;;20.05;56.87;97446.63;5113442;28;20533;-62
2021/07/10 00:44:37;;;;;;;1.63;0.38;;;;;;;20.10;56.93;97440.06;5113760;28;20031;-62
2021/07/10 00:47:03;;;;;;;1.55;0.60;;;;;;;20.10;56.67;97448.44;5113328;28;20041;-61
2021/07/10 00:49:28;;;;;;;0.10;0.10;;;;;;;20.11;57.02;97455.63;5113783;28;20028;-62
2021/07/10 00:51:54;;;;;;;0.47;0.47;;;;;;;20.13;56.85;97453.34;5113595;28;20068;-61
2021/07/10 00:54:20;;;;;;;0.47;0.45;;;;;;;20.20;56.79;97445.28;5113644;28;20028;-60
2021/07/10 00:56:48;;;;;;;1.23;0.95;;;;;;;20.28;56.46;97447.22;5113706;28;20497;-60
2021/07/10 00:59:14;;;;;;;0.30;0.30;;;;;;;20.36;56.31;97447.53;5095023;28;20130;-61
2021/07/10 01:01:41;;;;;;;0.30;0.30;;;;;;;20.44;56.28;97441.91;5113000;28;20501;-61
2021/07/10 01:04:06;;;;;;;0.17;0.17;;;;;;;20.49;56.26;97440.91;5113372;28;20032;-61
2021/07/10 01:06:32;;;;;;;0.32;0.32;;;;;;;20.54;56.10;97442.69;5113456;28;20062;-62
2021/07/10 01:08:58;;;;;;;0.70;0.70;;;;;;;20.54;56.22;97440.75;5113187;28;20436;-61
2021/07/10 01:11:24;;;;;;;0.52;0.50;;;;;;;20.53;56.22;97438.28;5113365;28;20035;-62
2021/07/10 01:13:50;;;;;;;0.20;0.20;;;;;;;20.51;56.32;97441.41;5113395;28;20027;-61
2021/07/10 01:16:16;;;;;;;0.20;0.20;;;;;;;20.51;56.29;97455.34;5112840;28;20035;-60
2021/07/10 01:18:42;;;;;;;1.00;0.70;;;;;;;20.51;56.50;97449.78;5113530;28;20492;-61
2021/07/10 01:21:07;;;;;;;1.73;0.70;;;;;;;20.60;56.26;97450.56;5112876;28;20027;-61
2021/07/10 01:23:33;;;;;;;0.20;0.20;;;;;;;20.69;56.13;97452.53;5112870;28;20031;-63
2021/07/10 01:25:59;;;;;;;1.02;0.47;;;;;;;20.83;55.84;97447.53;5113173;28;20034;-60
2021/07/10 01:28:25;;;;;;;0.20;0.20;;;;;;;21.00;55.25;97447.44;5094576;28;20073;-60
2021/07/10 01:30:51;;;;;;;0.22;0.22;;;;;;;21.16;55.31;97456.03;5113283;28;20035;-60
2021/07/10 01:33:17;;;;;;;0.55;0.32;;;;;;;21.30;54.90;97460.56;5112818;28;20054;-60
2021/07/10 01:35:44;;;;;;;0.30;0.30;;;;;;;21.46;54.33;97441.22;5112908;28;20024;-60
2021/07/10 01:38:12;;;;;;;0.40;0.40;;;;;;;21.62;54.21;97444.25;5113273;28;20036;-62
2021/07/10 01:40:38;;;;;;;1.33;0.50;;;;;;;21.80;54.12;97444.94;5112993;28;20373;-63
2021/07/10 01:43:05;;;;;;;0.30;0.30;;;;;;;21.93;53.76;97440.22;5112877;28;20088;-62
2021/07/10 01:45:33;;;;;;;1.05;0.52;;;;;;;22.09;53.43;97454.38;5112787;28;20531;-61
2021/07/10 01:47:59;;;;;;;0.32;0.32;;;;;;;22.22;53.14;97458.81;5112794;28;20039;-62
2021/07/10 01:50:26;;;;;;;1.48;0.85;;;;;;;22.29;53.25;97461.88;5112785;28;20060;-62
2021/07/10 01:52:52;;;;;;;0.35;0.35;;;;;;;22.35;52.85;97470.91;5114226;28;20076;-63
2021/07/10 01:55:18;;;;;;;1.50;0.50;;;;;;;22.51;52.58;97479.41;5116768;28;20028;-60
2021/07/10 01:57:47;;;;;;;0.65;0.65;;;;;;;22.83;52.19;97488.91;5117081;28;20043;-61
2021/07/10 02:00:27;;;;;;;0.32;0.32;;;;;;;23.06;51.82;97500.47;5117017;28;20377;-61
2021/07/10 02:02:56;;;;;;;0.47;0.47;;;;;;;23.21;51.36;97495.38;5116533;28;20039;-60
2021/07/10 02:05:26;;;;;;;0.30;0.30;;;;;;;23.22;51.42;97497.03;5116744;28;20034;-61
2021/07/10 02:07:53;;;;;;;1.08;0.95;;;;;;;23.16;51.77;97515.19;5116232;28;20169;-61
2021/07/10 02:10:21;;;;;;;0.35;0.35;;;;;;;23.14;51.50;97511.94;5116675;28;20080;-60
2021/07/10 02:12:49;;;;;;;0.73;0.73;;;;;;;23.06;52.18;97511.69;5116267;28;20515;-61
2021/07/10 02:15:15;;;;;;;0.60;0.60;;;;;;;22.97;52.16;97530.59;5098246;28;20048;-61
2021/07/10 02:17:44;;;;;;;0.20;0.20;;;;;;;22.82;52.21;97528.44;5116500;28;20106;-61
2021/07/10 02:20:12;;;;;;;0.32;0.30;;;;;;;22.54;53.08;97529.91;5116119;28;20028;-61
2021/07/10 02:22:37;;;;;;;1.20;0.35;;;;;;;22.12;54.01;97540.31;5116118;28;20040;-61
2021/07/10 02:25:09;;;;;;;1.85;0.35;;;;;;;21.76;54.64;97538.94;5116598;28;20023;-60
2021/07/10 02:27:35;;;;;;;0.45;0.45;;;;;;;21.50;55.21;97551.09;5116051;28;20032;-61
2021/07/10 02:30:01;;;;;;;0.32;0.20;;;;;;;21.27;55.59;97561.72;5115983;28;20031;-61
2021/07/10 02:32:27;;;;;;;0.10;0.10;;;;;;;21.10;55.96;97590.56;5115979;28;20046;-64
2021/07/10 02:34:53;;;;;;;3.42;1.20;;;;;;;20.88;56.14;97592.41;5115922;28;20524;-64
2021/07/10 02:37:18;;;;;;;0.10;0.10;;;;;;;20.56;57.20;97580.66;5115989;28;20027;-65
2021/07/10 02:39:47;;;;;;;0.30;0.30;;;;;;;20.08;58.11;97590.03;5116055;28;20033;-65
2021/07/10 02:42:13;;;;;;;0.35;0.32;;;;;;;19.52;59.64;97586.97;5115763;28;20432;-64
2021/07/10 02:44:39;;;;;;;0.20;0.20;;;;;;;18.96;60.94;97576.28;5097271;28;20031;-64
2021/07/10 02:47:05;;;;;;;0.25;0.25;;;;;;;18.55;61.85;97569.84;5096452;28;20024;-64
2021/07/10 02:49:31;;;;;;;0.73;0.73;;;;;;;18.28;62.47;97556.91;5095463;28;20115;-67
2021/07/10 02:51:56;;;;;;;0.32;0.32;;;;;;;18.00;63.04;97550.66;5095570;28;20110;-66
2021/07/10 02:54:22;;;;;;;6.82;1.20;;;;;;;17.73;63.58;97532.13;5095733;28;20059;-64
2021/07/10 02:56:48;;;;;;;0.47;0.47;;;;;;;17.59;64.03;97518.28;5076952;28;20084;-63
2021/07/10 02:59:13;;;;;;;0.68;0.30;;;;;;;17.52;63.96;97519.53;5095004;28;20396;-65
2021/07/10 03:01:39;;;;;;;0.28;0.28;;;;;;;17.49;63.96;97514.59;5095514;28;20501;-64
2021/07/10 03:04:05;;;;;;;0.20;0.20;;;;;;;17.45;63.72;97504.44;5095283;28;20032;-64
2021/07/10 03:06:31;;;;;;;0.50;0.50;;;;;;;17.42;64.03;97493.97;5108251;28;20136;-64
2021/07/10 03:08:56;;;;;;;0.25;0.25;;;;;;;17.40;63.83;97485.13;5115604;28;20031;-65
2021/07/10 03:11:22;;;;;;;0.80;0.30;;;;;;;17.32;64.05;97481.94;5115745;28;20115;-65
2021/07/10 03:13:48;;;;;;;0.40;0.40;;;;;;;17.33;64.15;97469.72;5115325;28;20028;-66
2021/07/10 03:16:14;;;;;;;4.97;0.50;;;;;;;17.32;64.11;97470.84;5114946;28;20027;-66
2021/07/10 03:18:39;;;;;;;0.30;0.30;;;;;;;17.29;64.24;97471.47;5115754;28;20045;-66
2021/07/10 03:21:05;;;;;;;0.25;0.25;;;;;;;17.28;64.36;97469.00;5115591;28;20088;-65
2021/07/10 03:23:31;;;;;;;0.32;0.32;;;;;;;17.32;64.38;97479.16;5114975;27;20532;-65
2021/07/10 03:25:57;;;;;;;0.17;0.17;;;;;;;17.40;64.28;97497.06;5115089;28;20039;-67
2021/07/10 03:28:23;;;;;;;0.20;0.20;;;;;;;17.52;63.92;97502.88;5096991;28;20027;-65
2021/07/10 03:30:52;;;;;;;0.20;0.20;;;;;;;17.60;63.85;97506.03;5115107;28;20079;-66
2021/07/10 03:33:19;;;;;;;0.17;0.17;;;;;;;17.62;63.93;97500.97;5114478;28;20055;-65
2021/07/10 03:35:45;;;;;;;0.30;0.30;;;;;;;17.82;63.63;97499.69;5114863;28;20125;-65
2021/07/10 03:38:11;;;;;;;0.35;0.35;;;;;;;18.11;63.00;97524.28;5114905;28;20039;-65
2021/07/10 03:40:36;;;;;;;0.38;0.38;;;;;;;18.32;62.72;97537.66;5114752;28;20076;-66
2021/07/10 03:43:04;;;;;;;0.10;0.10;;;;;;;18.35;62.86;97537.84;5115072;28;20477;-65
2021/07/10 03:45:30;;;;;;;0.10;0.10;;;;;;;18.35;63.22;97539.81;5114371;28;20028;-66
2021/07/10 03:47:56;;;;;;;1.08;0.40;;;;;;;18.35;63.40;97532.28;5114321;28;20027;-66
2021/07/10 03:50:22;;;;;;;0.20;0.20;;;;;;;18.36;63.69;97530.34;5114446;28;20023;-65
2021/07/10 03:52:48;;;;;;;0.40;0.40;;;;;;;18.39;63.83;97515.81;5096223;28;20514;-64
2021/07/10 03:55:15;;;;;;;0.10;0.10;;;;;;;18.39;63.97;97507.47;5095781;28;20019;-65
2021/07/10 03:57:41;;;;;;;0.20;0.20;;;;;;;18.42;64.14;97497.66;5095944;28;20511;-65
2021/07/10 04:00:18;;;;;;;0.32;0.32;;;;;;;18.46;64.30;97485.59;5114487;28;20035;-65
2021/07/10 04:02:44;;;;;;;0.70;0.43;;;;;;;18.51;64.24;97496.56;5114463;28;20036;-64
2021/07/10 04:05:10;;;;;;;0.30;0.30;;;;;;;18.57;64.15;97488.91;5114584;28;20023;-64
2021/07/10 04:07:37;;;;;;;0.25;0.20;;;;;;;18.63;64.23;97482.06;5114204;28;20032;-63
2021/07/10 04:10:06;;;;;;;0.22;0.22;;;;;;;18.73;64.29;97480.97;5113858;28;20493;-65
2021/07/10 04:12:32;;;;;;;0.20;0.20;;;;;;;18.78;64.26;97480.81;5112327;28;20036;-63
2021/07/10 04:15:02;;;;;;;0.20;0.20;;;;;;;18.87;64.24;97478.09;5111291;28;20023;-65
2021/07/10 04:17:30;;;;;;;0.40;0.40;;;;;;;19.01;63.89;97478.00;5110950;28;20160;-65
2021/07/10 04:19:56;;;;;;;0.10;0.10;;;;;;;19.19;63.76;97490.78;5093114;28;20035;-65
2021/07/10 04:22:23;;;;;;;0.20;0.20;;;;;;;19.28;63.61;97485.25;5111680;28;20020;-64
2021/07/10 04:24:49;;;;;;;0.47;0.35;;;;;;;19.35;63.87;97490.34;5111471;28;20118;-63
2021/07/10 04:27:15;;;;;;;0.28;0.28;;;;;;;19.47;63.81;97489.69;5111479;28;20024;-64
2021/07/10 04:29:44;;;;;;;0.32;0.32;;;;;;;19.46;63.71;97502.78;5111670;28;20112;-66
2021/07/10 04:32:11;;;;;;;0.20;0.20;;;;;;;19.42;64.16;97496.25;5109578;27;20042;-65
2021/07/10 04:34:37;;;;;;;0.28;0.28;;;;;;;19.32;64.47;97496.56;5101526;28;20040;-66
2021/07/10 04:37:06;;;;;;;0.10;0.10;;;;;;;19.22;64.86;97490.13;5097101;27;20049;-67
2021/07/10 04:39:38;;;;;;;1.88;0.43;;;;;;;19.16;65.08;97479.50;5107735;28;20028;-69
2021/07/10 04:42:08;;;;;;;0.63;0.63;;;;;;;19.11;65.41;97474.91;5108816;28;20515;-66
2021/07/10 04:44:34;;;;;;;0.20;0.20;;;;;;;19.04;65.69;97469.00;5091326;28;20104;-65
2021/07/10 04:47:00;;;;;;;0.38;0.38;;;;;;;19.02;65.78;97465.72;5091549;28;20049;-66
2021/07/10 04:49:27;;;;;;;0.65;0.40;;;;;;;18.98;65.82;97471.09;5090819;28;20042;-66
2021/07/10 04:51:52;;;;;;;0.20;0.20;;;;;;;18.94;66.09;97475.66;5109847;28;20111;-66
2021/07/10 04:54:18;;;;;;;0.30;0.30;;;;;;;18.93;66.22;97478.78;5109711;28;20110;-68
2021/07/10 04:56:44;;;;;;;0.38;0.35;;;;;;;18.88;66.40;97488.91;5109205;28;20135;-69
2021/07/10 04:59:10;;;;;;;0.28;0.28;;;;;;;18.85;66.56;97497.06;5091561;28;20076;-64
2021/07/10 05:01:36;;;;;;;1.35;0.55;;;;;;;18.80;66.70;97503.59;5109524;28;20036;-65
2021/07/10 05:04:01;;;;;;;0.28;0.28;;;;;;;18.78;66.86;97505.84;5109842;28;20062;-65
2021/07/10 05:06:27;;;;;;;0.45;0.38;;;;;;;18.76;66.89;97512.84;5109291;28;20024;-64
2021/07/10 05:08:53;;;;;;;1.55;0.80;;;;;;;18.73;67.08;97509.59;5109580;28;20024;-65
2021/07/10 05:11:19;;;;;;;0.40;0.38;;;;;;;18.68;67.19;97511.69;5090810;28;20429;-64
2021/07/10 05:13:45;;;;;;;0.10;0.10;;;;;;;18.69;67.35;97524.47;5109693;28;20084;-67
2021/07/10 05:16:10;;;;;;;0.60;0.60;;;;;;;18.70;67.07;97521.34;5110204;28;20031;-70
2021/07/10 05:18:36;;;;;;;0.10;0.10;;;;;;;18.70;67.26;97523.31;5109567;28;20023;-66
2021/07/10 05:21:02;;;;;;;0.30;0.30;;;;;;;18.68;67.13;97511.69;5109613;28;20035;-69
2021/07/10 05:23:28;;;;;;;0.25;0.25;;;;;;;18.74;67.18;97511.25;5109066;28;20404;-66
2021/07/10 05:25:54;;;;;;;0.80;0.32;;;;;;;18.81;66.93;97515.50;5091783;28;20035;-65
2021/07/10 05:28:20;;;;;;;0.10;0.10;;;;;;;18.89;66.68;97518.38;5112214;28;20069;-65
2021/07/10 05:30:47;;;;;;;0.10;0.10;;;;;;;18.95;66.57;97509.84;5114037;28;20536;-65
2021/07/10 05:33:16;;;;;;;0.93;0.52;;;;;;;19.01;66.67;97511.38;5113896;28;20139;-62
2021/07/10 05:35:45;;;;;;;0.20;0.20;;;;;;;19.10;66.11;97512.22;5113692;28;20550;-64
2021/07/10 05:38:14;;;;;;;0.85;0.40;;;;;;;19.15;66.45;97512.06;5114242;28;20039;-64
2021/07/10 05:40:40;;;;;;;0.20;0.20;;;;;;;19.15;66.16;97525.97;5095999;28;20038;-64
2021/07/10 05:43:06;;;;;;;0.38;0.35;;;;;;;19.11;66.38;97529.72;5095300;28;20028;-66
2021/07/10 05:45:32;;;;;;;0.40;0.40;;;;;;;19.08;66.41;97534.00;5114274;28;20046;-66
2021/07/10 05:47:58;;;;;;;0.25;0.25;;;;;;;19.08;66.48;97534.78;5113695;28;20059;-65
2021/07/10 05:50:24;;;;;;;0.40;0.40;;;;;;;19.06;66.71;97530.69;5113983;28;20070;-68
2021/07/10 05:52:49;;;;;;;0.22;0.22;;;;;;;19.05;66.68;97542.94;5113719;28;20027;-67
2021/07/10 05:55:18;;;;;;;0.52;0.52;;;;;;;19.01;66.94;97544.75;5112113;28;20031;-69
2021/07/10 05:57:48;;;;;;;0.20;0.20;;;;;;;18.96;66.92;97540.13;5112143;28;20118;-66
2021/07/10 06:00:15;;;;;;;0.45;0.45;;;;;;;18.92;67.10;97547.50;5110804;28;20031;-68
2021/07/10 06:02:42;;;;;;;0.32;0.32;;;;;;;18.91;67.12;97534.72;5108779;28;20028;-64
2021/07/10 06:05:10;;;;;;;3.83;0.65;;;;;;;18.91;67.10;97546.66;5089048;28;20071;-65
2021/07/10 06:07:38;;;;;;;1.75;0.40;;;;;;;19.01;66.91;97542.78;5110814;28;20493;-65
2021/07/10 06:10:09;;;;;;;0.20;0.20;;;;;;;19.19;66.64;97518.63;5091184;28;20092;-64
2021/07/10 06:12:35;;;;;;;0.17;0.17;;;;;;;19.56;65.65;97513.59;5111259;28;20080;-62
2021/07/10 06:15:03;;;;;;;0.20;0.20;;;;;;;19.99;64.63;97525.13;5111282;28;20028;-61
2021/07/10 06:17:29;;;;;;;0.15;0.15;;;;;;;20.46;63.40;97545.59;5111811;28;20032;-63
2021/07/10 06:19:55;;;;;;;0.25;0.25;;;;;;;21.12;61.85;97543.59;5111411;28;20054;-63
2021/07/10 06:22:20;;;;;;;0.22;0.22;;;;;;;22.01;60.26;97542.69;5076552;28;20062;-64
2021/07/10 06:24:47;;;;;;;0.10;0.10;;;;;;;22.78;58.70;97533.13;5109455;28;20549;-63
2021/07/10 06:27:12;;;;;;;0.17;0.17;;;;;;;23.35;57.46;97534.22;5111162;28;20028;-62
2021/07/10 06:29:38;;;;;;;0.10;0.10;;;;;;;23.69;57.10;97538.53;5111948;28;20105;-63
2021/07/10 06:32:07;;;;;;;0.57;0.40;;;;;;;23.94;57.22;97527.28;5110023;28;20083;-62
2021/07/10 06:34:34;;;;;;;0.45;0.30;;;;;;;24.37;56.48;97531.34;5112676;28;20417;-63
2021/07/10 06:37:00;;;;;;;0.32;0.20;;;;;;;24.67;56.18;97536.56;5112316;28;20046;-64
2021/07/10 06:39:26;;;;;;;0.10;0.10;;;;;;;25.18;55.52;97539.50;5093732;28;20067;-64
2021/07/10 06:41:52;;;;;;;0.22;0.22;;;;;;;25.41;55.02;97530.47;5112722;28;20058;-62
2021/07/10 06:44:17;;;;;;;0.30;0.30;;;;;;;25.32;55.78;97529.84;5112255;28;20063;-63
2021/07/10 06:46:43;;;;;;;0.22;0.22;;;;;;;25.34;55.62;97530.31;5112854;28;20028;-62
2021/07/10 06:49:09;;;;;;;0.20;0.20;;;;;;;25.51;55.35;97529.09;5111780;28;20076;-64
2021/07/10 06:51:36;;;;;;;0.17;0.17;;;;;;;25.65;55.58;97523.00;5113024;28;20055;-64
2021/07/10 06:54:03;;;;;;;0.10;0.10;;;;;;;25.85;55.12;97513.41;5112575;28;20039;-64
2021/07/10 06:56:29;;;;;;;0.10;0.10;;;;;;;26.10;54.53;97518.78;5110550;28;20401;-63
2021/07/10 06:58:55;;;;;;;0.30;0.30;;;;;;;26.35;54.25;97518.47;5110563;28;20036;-63
2021/07/10 07:01:21;;;;;;;0.30;0.30;;;;;;;26.35;54.56;97522.13;5112139;28;20035;-64
2021/07/10 07:03:46;;;;;;;0.60;0.20;;;;;;;26.25;54.72;97522.72;5112730;28;20033;-64
2021/07/10 07:06:13;;;;;;;0.10;0.10;;;;;;;26.03;55.34;97510.19;5094032;28;20035;-62
2021/07/10 07:08:39;;;;;;;0.52;0.20;;;;;;;25.88;55.62;97515.50;5112886;28;20506;-67
2021/07/10 07:11:05;;;;;;;0.38;0.38;;;;;;;25.66;56.25;97502.13;5112146;28;20087;-66
2021/07/10 07:13:30;;;;;;;0.25;0.25;;;;;;;25.46;56.63;97493.66;5112130;28;20047;-70
2021/07/10 07:15:56;;;;;;;0.50;0.25;;;;;;;25.36;56.56;97495.03;5094042;28;20400;-67
2021/07/10 07:18:22;;;;;;;0.30;0.30;;;;;;;25.27;56.76;97488.75;5112222;28;20030;-64
2021/07/10 07:20:48;;;;;;;1.85;0.30;;;;;;;25.12;56.95;97484.81;5094277;28;20483;-63
2021/07/10 07:23:14;;;;;;;0.45;0.45;;;;;;;25.02;56.92;97488.16;5111697;28;20081;-61
2021/07/10 07:25:40;;;;;;;0.80;0.52;;;;;;;24.97;57.08;97485.63;5112148;28;20122;-63
2021/07/10 07:28:06;;;;;;;0.38;0.17;;;;;;;24.97;56.65;97485.63;5111802;28;20511;-65
2021/07/10 07:30:33;;;;;;;0.00;0.00;;;;;;;24.94;56.94;97483.53;5111758;28;20027;-63
2021/07/10 07:32:59;;;;;;;0.20;0.20;;;;;;;24.72;57.34;97480.19;5111922;28;20051;-64
2021/07/10 07:35:25;;;;;;;0.35;0.35;;;;;;;24.62;57.41;97477.94;5111733;28;20199;-63
2021/07/10 07:37:51;;;;;;;0.32;0.32;;;;;;;24.66;56.93;97484.41;5093673;28;20110;-65
2021/07/10 07:40:17;;;;;;;0.10;0.10;;;;;;;24.79;56.53;97476.75;5111848;28;20027;-64
2021/07/10 07:42:45;;;;;;;0.32;0.32;;;;;;;25.13;55.87;97468.75;5111893;28;20114;-65
2021/07/10 07:45:12;;;;;;;0.20;0.20;;;;;;;25.67;54.51;97484.09;5076705;28;20143;-65
2021/07/10 07:47:39;;;;;;;0.13;0.13;;;;;;;25.95;53.51;97483.88;5111440;28;20023;-63
2021/07/10 07:50:08;;;;;;;1.10;0.25;;;;;;;25.65;54.24;97473.22;5110335;28;20085;-65
2021/07/10 07:52:34;;;;;;;0.25;0.22;;;;;;;25.37;55.41;97479.00;5111736;28;20031;-64
2021/07/10 07:55:01;;;;;;;0.10;0.10;;;;;;;25.45;55.16;97482.78;5111198;28;20065;-65
2021/07/10 07:57:27;;;;;;;0.10;0.10;;;;;;;25.31;55.02;97472.84;5111589;28;20036;-64
2021/07/10 07:59:52;;;;;;;0.43;0.40;;;;;;;25.02;55.96;97471.31;5111522;28;20409;-65
2021/07/10 08:02:18;;;;;;;0.10;0.10;;;;;;;24.86;56.09;97467.69;5111831;28;20389;-65
2021/07/10 08:04:44;;;;;;;0.32;0.32;;;;;;;24.94;55.93;97475.94;5111117;28;20023;-64
2021/07/10 08:07:10;;;;;;;0.15;0.15;;;;;;;25.08;55.04;97466.25;5109112;28;20027;-65
2021/07/10 08:09:35;;;;;;;0.10;0.10;;;;;;;25.31;54.63;97480.47;5109751;28;20043;-66
2021/07/10 08:12:01;;;;;;;0.40;0.40;;;;;;;25.31;54.52;97467.22;5109611;28;20077;-65
2021/07/10 08:14:27;;;;;;;1.23;0.77;;;;;;;25.25;54.84;97471.47;5110868;28;20027;-64
2021/07/10 08:16:53;;;;;;;0.30;0.15;;;;;;;25.18;54.96;97460.88;5092244;28;20031;-64
2021/07/10 08:19:19;;;;;;;0.40;0.35;;;;;;;25.02;55.38;97451.66;5111193;28;20031;-64
2021/07/10 08:21:46;;;;;;;0.52;0.52;;;;;;;25.08;55.01;97446.59;5110819;28;20085;-62
2021/07/10 08:24:12;;;;;;;0.77;0.55;;;;;;;24.99;55.35;97458.00;5106631;27;20024;-63
2021/07/10 08:26:38;;;;;;;0.28;0.28;;;;;;;25.08;54.59;97466.25;5093226;28;20446;-63
2021/07/10 08:29:05;;;;;;;0.52;0.35;;;;;;;25.41;54.12;97468.66;5108427;28;20035;-64
2021/07/10 08:31:35;;;;;;;0.43;0.43;;;;;;;25.78;53.25;97465.47;5110051;28;20092;-64
2021/07/10 08:34:01;;;;;;;0.63;0.63;;;;;;;26.03;52.50;97476.44;5092160;28;20047;-63
2021/07/10 08:36:27;;;;;;;0.85;0.20;;;;;;;26.20;52.45;97484.41;5092449;28;20083;-61
2021/07/10 08:38:54;;;;;;;0.30;0.30;;;;;;;26.48;51.99;97474.09;5110634;28;20060;-63
2021/07/10 08:41:23;;;;;;;0.13;0.13;;;;;;;26.55;51.48;97469.41;5110805;28;20035;-67
2021/07/10 08:43:49;;;;;;;1.33;0.77;;;;;;;26.45;51.93;97469.22;5110925;28;20038;-62
2021/07/10 08:46:20;;;;;;;0.20;0.20;;;;;;;26.28;52.20;97474.16;5111222;28;20093;-61
2021/07/10 08:48:46;;;;;;;0.32;0.30;;;;;;;26.13;52.79;97464.59;5093074;28;20122;-64
2021/07/10 08:51:13;;;;;;;0.63;0.50;;;;;;;25.83;53.28;97455.91;5111366;28;20089;-65
2021/07/10 08:53:40;;;;;;;1.88;0.85;;;;;;;25.49;53.80;97450.78;5110774;28;20435;-61
2021/07/10 08:56:07;;;;;;;0.70;0.40;;;;;;;25.14;54.40;97437.50;5110574;28;20080;-65
2021/07/10 08:58:35;;;;;;;0.50;0.50;;;;;;;24.95;55.03;97432.63;5092631;28;20028;-65
2021/07/10 09:01:02;;;;;;;0.10;0.10;;;;;;;24.99;54.59;97441.16;5110595;28;20111;-62
2021/07/10 09:03:27;;;;;;;0.10;0.10;;;;;;;25.17;54.14;97436.75;5110900;28;20049;-63
2021/07/10 09:05:53;;;;;;;0.28;0.20;;;;;;;25.50;53.22;97448.75;5092944;28;20032;-64
2021/07/10 09:08:28;;;;;;;0.68;0.68;;;;;;;25.63;52.77;97424.16;5090457;28;20027;-64
2021/07/10 09:10:56;;;;;;;0.57;0.43;;;;;;;25.95;52.25;97419.19;5091881;28;20059;-64
2021/07/10 09:13:43;;;;;;;0.40;0.40;;;;;;;26.30;51.30;97428.75;5111065;28;20036;-62
2021/07/10 09:16:26;;;;;;;0.70;0.70;;;;;;;26.29;51.30;97425.09;5109814;28;20036;-64
2021/07/10 09:19:00;;;;;;;0.28;0.28;;;;;;;26.27;51.31;97427.50;5110119;28;20440;-64
2021/07/10 09:21:45;;;;;;;0.38;0.38;;;;;;;26.37;51.08;97426.88;5110709;28;20405;-64
2021/07/10 09:24:15;;;;;;;0.13;0.13;;;;;;;26.35;50.96;97439.69;5111247;28;20047;-63
2021/07/10 09:26:47;;;;;;;0.52;0.52;;;;;;;26.24;51.14;97433.88;5110400;28;20035;-64
2021/07/10 09:29:19;;;;;;;0.20;0.20;;;;;;;26.28;51.19;97429.13;5110563;28;20042;-62
2021/07/10 09:31:59;;;;;;;0.70;0.45;;;;;;;26.39;50.85;97426.50;5104085;28;20096;-62
2021/07/10 09:34:32;;;;;;;1.05;1.00;;;;;;;26.32;51.11;97427.16;5104564;28;20055;-63
2021/07/10 09:37:05;;;;;;;0.28;0.28;;;;;;;26.32;50.91;97423.56;5106774;28;20055;-64
2021/07/10 09:39:40;;;;;;;0.55;0.55;;;;;;;26.17;51.37;97420.47;5108811;28;20042;-64
2021/07/10 09:42:06;;;;;;;1.10;0.63;;;;;;;25.88;51.82;97403.03;5106520;28;20032;-65
2021/07/10 09:44:44;;;;;;;0.25;0.25;;;;;;;25.84;51.83;97404.13;5092354;28;20027;-65
2021/07/10 09:47:11;;;;;;;0.28;0.28;;;;;;;25.83;51.71;97410.94;5090811;28;20043;-65
2021/07/10 09:49:38;;;;;;;0.38;0.20;;;;;;;25.84;51.60;97424.63;5110301;28;20024;-63
2021/07/10 09:52:15;;;;;;;0.35;0.35;;;;;;;25.87;51.47;97412.63;5110080;28;20032;-63
2021/07/10 09:54:42;;;;;;;0.10;0.10;;;;;;;26.03;51.05;97411.75;5109543;28;20507;-63
2021/07/10 09:57:12;;;;;;;0.30;0.30;;;;;;;26.13;50.58;97419.56;5106504;28;20031;-63
2021/07/10 09:59:44;;;;;;;0.73;0.73;;;;;;;26.03;50.88;97414.56;5109608;28;20032;-67
2021/07/10 10:02:15;;;;;;;0.40;0.28;;;;;;;25.76;51.14;97430.47;5091861;28;20110;-63
2021/07/10 10:04:41;;;;;;;0.25;0.22;;;;;;;25.61;51.55;97434.97;5109280;28;20044;-63
2021/07/10 10:07:16;;;;;;;0.20;0.20;;;;;;;25.52;51.46;97424.75;5090581;28;20039;-62
2021/07/10 10:09:43;;;;;;;0.32;0.30;;;;;;;25.39;51.62;97425.25;5109979;28;20031;-64
2021/07/10 10:12:16;;;;;;;0.47;0.20;;;;;;;25.23;51.97;97428.06;5110105;28;20356;-62
2021/07/10 10:14:58;;;;;;;0.20;0.20;;;;;;;25.14;51.84;97428.25;5112709;28;20038;-62
2021/07/10 10:17:26;;;;;;;0.30;0.30;;;;;;;25.22;51.53;97432.03;5113693;28;20404;-61
2021/07/10 10:19:53;;;;;;;0.13;0.13;;;;;;;25.41;51.08;97429.34;5113801;28;20736;-64
2021/07/10 10:22:19;;;;;;;0.00;0.00;;;;;;;25.60;50.37;97441.75;5113809;28;20073;-62
2021/07/10 10:24:51;;;;;;;0.20;0.20;;;;;;;25.66;50.57;97446.75;5095757;28;20032;-61
2021/07/10 10:27:19;;;;;;;0.20;0.20;;;;;;;25.61;50.35;97446.22;5107681;28;20392;-64
2021/07/10 10:29:45;;;;;;;0.20;0.20;;;;;;;25.58;50.23;97449.75;5113517;28;20113;-63
2021/07/10 10:32:12;;;;;;;0.20;0.20;;;;;;;25.58;50.23;97458.19;5110432;28;20081;-63
2021/07/10 10:34:39;;;;;;;0.38;0.38;;;;;;;25.60;50.23;97464.25;5095510;28;20078;-64
2021/07/10 10:37:06;;;;;;;0.10;0.10;;;;;;;25.57;50.46;97462.19;5109167;28;20093;-63
2021/07/10 10:39:35;;;;;;;0.30;0.30;;;;;;;25.53;50.64;97464.91;5102379;28;20063;-64
2021/07/10 10:42:07;;;;;;;0.10;0.10;;;;;;;25.42;50.72;97470.28;5113606;28;20028;-65
2021/07/10 10:44:36;;;;;;;0.28;0.28;;;;;;;25.35;51.13;97465.31;5114066;28;20043;-63
2021/07/10 10:47:03;;;;;;;0.10;0.10;;;;;;;25.41;50.93;97453.78;5113813;28;20031;-66
2021/07/10 10:49:43;;;;;;;0.10;0.10;;;;;;;25.51;50.57;97445.63;5106787;28;20023;-63
2021/07/10 10:52:22;;;;;;;0.28;0.28;;;;;;;25.46;50.61;97440.28;5110475;28;20055;-64
2021/07/10 10:54:50;;;;;;;0.10;0.10;;;;;;;25.48;50.84;97431.47;5107358;28;20031;-62
2021/07/10 10:57:29;;;;;;;0.20;0.20;;;;;;;25.58;50.14;97427.28;5094570;28;20054;-63
2021/07/10 10:59:55;;;;;;;0.10;0.10;;;;;;;25.63;49.86;97424.16;5094856;28;20516;-63
2021/07/10 11:02:25;;;;;;;0.20;0.20;;;;;;;25.55;50.50;97417.56;5113688;28;20104;-64
2021/07/10 11:04:56;;;;;;;0.22;0.22;;;;;;;25.58;50.28;97405.59;5113211;28;20497;-63
2021/07/10 11:07:25;;;;;;;0.10;0.10;;;;;;;25.59;50.15;97407.22;5094429;28;20500;-65
2021/07/10 11:10:03;;;;;;;0.10;0.10;;;;;;;25.58;50.15;97404.78;5113068;28;20039;-64
2021/07/10 11:12:50;;;;;;;0.10;0.10;;;;;;;25.65;50.12;97419.00;5112564;28;20023;-66
2021/07/10 11:15:27;;;;;;;0.13;0.13;;;;;;;25.71;49.96;97425.94;5112442;28;20039;-62
2021/07/10 11:17:54;;;;;;;0.15;0.15;;;;;;;25.80;49.74;97434.97;5112877;28;20039;-66
2021/07/10 11:20:42;;;;;;;0.13;0.13;;;;;;;25.81;49.56;97435.78;5108518;28;20028;-65
2021/07/10 11:23:09;;;;;;;0.20;0.20;;;;;;;25.88;49.45;97441.56;5111622;28;20046;-64
2021/07/10 11:25:50;;;;;;;0.10;0.10;;;;;;;25.94;49.44;97433.63;5093504;28;20405;-64
2021/07/10 11:28:20;;;;;;;0.20;0.13;;;;;;;25.96;49.33;97434.09;5101533;28;20027;-63
2021/07/10 11:30:49;;;;;;;2.50;0.25;;;;;;;26.04;48.85;97438.69;5108547;28;20035;-62
2021/07/10 11:33:15;;;;;;;0.10;0.10;;;;;;;26.21;48.69;97452.31;5108702;28;20051;-64
2021/07/10 11:35:46;;;;;;;0.30;0.30;;;;;;;26.43;48.33;97444.28;5094869;28;20561;-64